Time;durP1;ratioP1;P1;durP2;ratioP2;P2;SDS_P1;SDS_P2;PMS_P1;PMS_P2;Temp;Humidity;BMP_temperature;BMP_pressure;BME280_temperature;BME280_humidity;BME280_pressure;Samples;Min_cycle;Max_cycle;Signal;HPM_P1;HPM_P2
2023/08/01 00:01:45;;;;;;;0.00;0.00;;;15.90;99.90;;;;;;5108363;28;20453;-88
2023/08/01 00:04:11;;;;;;;0.10;0.10;;;15.90;99.90;;;;;;5106968;28;20532;-89
2023/08/01 00:06:36;;;;;;;0.10;0.10;;;15.90;99.90;;;;;;5109397;27;20233;-88
2023/08/01 00:09:02;;;;;;;0.00;0.00;;;15.90;99.90;;;;;;5115016;27;20699;-87
2023/08/01 00:11:28;;;;;;;0.10;0.10;;;15.90;99.90;;;;;;5103956;27;20180;-89
2023/08/01 00:13:53;;;;;;;0.00;0.00;;;15.90;99.90;;;;;;5103983;28;20176;-89
2023/08/01 00:16:19;;;;;;;0.10;0.10;;;15.80;99.90;;;;;;5108264;28;20195;-89
2023/08/01 00:18:44;;;;;;;0.10;0.10;;;15.80;99.90;;;;;;5109918;28;20192;-90
2023/08/01 00:21:11;;;;;;;0.00;0.00;;;15.80;99.90;;;;;;5114394;27;20233;-89
2023/08/01 00:23:37;;;;;;;0.10;0.10;;;15.80;99.90;;;;;;5108172;28;20802;-89
2023/08/01 00:26:02;;;;;;;0.10;0.10;;;15.70;99.90;;;;;;5107178;27;20420;-91
2023/08/01 00:28:30;;;;;;;0.07;0.07;;;15.80;99.90;;;;;;5107004;28;20894;-89
2023/08/01 00:31:06;;;;;;;0.00;0.00;;;15.80;99.90;;;;;;5099616;28;20183;-90
2023/08/01 00:33:32;;;;;;;0.10;0.10;;;15.70;99.90;;;;;;5111846;28;20424;-90
2023/08/01 00:35:57;;;;;;;0.00;0.00;;;15.70;99.90;;;;;;5111827;28;20411;-91
2023/08/01 00:38:23;;;;;;;0.00;0.00;;;15.70;99.90;;;;;;5110102;28;20957;-90
2023/08/01 00:40:50;;;;;;;0.10;0.10;;;15.70;99.90;;;;;;5111286;28;20192;-90
2023/08/01 00:43:15;;;;;;;0.10;0.10;;;15.70;99.90;;;;;;5107478;28;20225;-91
2023/08/01 00:45:41;;;;;;;0.10;0.10;;;15.60;99.90;;;;;;5105263;28;20462;-90
2023/08/01 00:48:06;;;;;;;0.10;0.10;;;15.60;99.90;;;;;;5112150;28;20211;-91
2023/08/01 00:50:33;;;;;;;0.10;0.10;;;15.50;99.90;;;;;;5093192;28;20256;-92
2023/08/01 00:52:58;;;;;;;0.10;0.10;;;15.50;99.90;;;;;;5103816;28;20505;-89
2023/08/01 00:55:26;;;;;;;0.10;0.10;;;15.50;99.90;;;;;;5109695;28;20440;-91
2023/08/01 00:57:52;;;;;;;0.00;0.00;;;15.50;99.90;;;;;;5110401;28;20184;-93
2023/08/01 01:00:18;;;;;;;0.10;0.10;;;15.50;99.90;;;;;;5106208;28;20526;-93
2023/08/01 01:02:43;;;;;;;0.00;0.00;;;15.50;99.90;;;;;;5104696;28;20522;-92
2023/08/01 01:05:09;;;;;;;0.00;0.00;;;15.40;99.90;;;;;;5099736;28;20238;-92
2023/08/01 01:07:35;;;;;;;0.00;0.00;;;15.40;99.90;;;;;;5108563;28;20295;-91
2023/08/01 01:10:00;;;;;;;0.10;0.10;;;15.40;99.90;;;;;;5104664;28;20184;-91
2023/08/01 01:12:26;;;;;;;0.10;0.10;;;15.40;99.90;;;;;;5106340;28;20247;-92
2023/08/01 01:14:51;;;;;;;0.10;0.10;;;15.40;99.90;;;;;;5104149;28;20227;-93
2023/08/01 01:17:17;;;;;;;0.10;0.10;;;15.40;99.90;;;;;;5105258;28;20667;-92
2023/08/01 01:19:43;;;;;;;0.00;0.00;;;15.40;99.90;;;;;;5104444;28;20249;-92
2023/08/01 01:22:10;;;;;;;0.10;0.10;;;15.40;99.90;;;;;;5100522;28;20199;-92
2023/08/01 01:24:36;;;;;;;0.10;0.10;;;15.40;99.90;;;;;;5099119;28;20189;-91
2023/08/01 01:27:04;;;;;;;0.00;0.00;;;15.30;99.90;;;;;;5089136;28;20486;-92
2023/08/01 01:29:30;;;;;;;0.10;0.10;;;15.30;99.90;;;;;;5109855;28;20546;-91
2023/08/01 01:31:58;;;;;;;0.10;0.10;;;15.30;99.90;;;;;;5106118;28;20441;-92
2023/08/01 01:34:24;;;;;;;0.10;0.10;;;15.40;99.90;;;;;;5099006;28;20449;-92
2023/08/01 01:36:50;;;;;;;0.10;0.10;;;15.30;99.90;;;;;;5104151;27;21019;-92
2023/08/01 01:39:15;;;;;;;0.10;0.10;;;15.30;99.90;;;;;;5113628;27;20604;-92
2023/08/01 01:41:41;;;;;;;0.10;0.10;;;15.40;99.90;;;;;;5108413;28;20197;-93
2023/08/01 01:44:06;;;;;;;0.10;0.10;;;15.40;99.90;;;;;;5107923;28;20270;-92
2023/08/01 01:46:32;;;;;;;0.10;0.10;;;15.30;99.90;;;;;;5105108;28;20192;-91
2023/08/01 01:48:58;;;;;;;0.10;0.10;;;15.40;99.90;;;;;;5109321;28;20238;-92
2023/08/01 01:51:26;;;;;;;0.10;0.10;;;15.40;99.90;;;;;;5108798;28;20180;-92
2023/08/01 01:53:51;;;;;;;0.10;0.10;;;15.40;99.90;;;;;;5097836;28;20442;-92
2023/08/01 01:56:17;;;;;;;0.10;0.10;;;15.40;99.90;;;;;;5096428;28;20458;-93
2023/08/01 01:58:42;;;;;;;0.10;0.10;;;15.40;99.90;;;;;;5106865;28;20689;-92
2023/08/01 02:01:08;;;;;;;0.00;0.00;;;15.50;99.90;;;;;;5111475;28;20176;-91
2023/08/01 02:03:33;;;;;;;0.10;0.10;;;15.50;99.90;;;;;;5107704;28;20203;-92
2023/08/01 02:05:59;;;;;;;0.00;0.00;;;15.50;99.90;;;;;;5101777;28;20211;-93
2023/08/01 02:08:24;;;;;;;0.00;0.00;;;15.50;99.90;;;;;;5098767;28;20208;-92
2023/08/01 02:10:50;;;;;;;0.00;0.00;;;15.60;99.90;;;;;;5118083;28;20187;-90
2023/08/01 02:13:16;;;;;;;0.10;0.10;;;15.60;99.90;;;;;;5107764;28;20276;-91
2023/08/01 02:15:42;;;;;;;0.00;0.00;;;15.60;99.90;;;;;;5109318;28;20195;-92
2023/08/01 02:18:07;;;;;;;0.10;0.10;;;15.60;99.90;;;;;;5110108;28;20426;-91
2023/08/01 02:20:33;;;;;;;0.10;0.10;;;15.60;99.90;;;;;;5107391;28;20241;-92
2023/08/01 02:22:58;;;;;;;0.00;0.00;;;15.60;99.90;;;;;;5108935;28;20268;-92
2023/08/01 02:25:24;;;;;;;0.10;0.10;;;15.60;99.90;;;;;;5104628;28;20193;-91
2023/08/01 02:27:49;;;;;;;0.10;0.10;;;15.60;99.90;;;;;;5108447;28;20205;-93
2023/08/01 02:30:15;;;;;;;0.10;0.10;;;15.60;99.90;;;;;;5110959;28;20199;-93
2023/08/01 02:32:42;;;;;;;0.00;0.00;;;15.60;99.90;;;;;;5114970;28;20177;-91
2023/08/01 02:35:07;;;;;;;0.00;0.00;;;15.60;99.90;;;;;;5113994;28;20464;-92
2023/08/01 02:37:33;;;;;;;0.10;0.10;;;15.60;99.90;;;;;;5096350;28;20942;-92
2023/08/01 02:39:58;;;;;;;0.10;0.10;;;15.60;99.90;;;;;;5113539;28;20223;-93
2023/08/01 02:42:24;;;;;;;0.10;0.10;;;15.50;99.90;;;;;;5110805;28;20849;-93
2023/08/01 02:44:49;;;;;;;0.10;0.10;;;15.50;99.90;;;;;;5114408;28;20179;-93
2023/08/01 02:47:15;;;;;;;0.10;0.10;;;15.50;99.90;;;;;;5112844;28;20195;-90
2023/08/01 02:49:40;;;;;;;0.10;0.10;;;15.40;99.90;;;;;;5113627;28;20763;-93
2023/08/01 02:52:06;;;;;;;0.10;0.10;;;15.40;99.90;;;;;;5114559;28;20176;-93
2023/08/01 02:54:31;;;;;;;0.10;0.10;;;15.40;99.90;;;;;;5107175;28;20777;-92
2023/08/01 02:56:57;;;;;;;0.10;0.10;;;15.40;99.90;;;;;;5113900;28;20184;-92
2023/08/01 02:59:23;;;;;;;0.10;0.10;;;15.40;99.90;;;;;;5104254;28;20196;-91
2023/08/01 03:01:49;;;;;;;0.10;0.10;;;15.30;99.90;;;;;;5112942;28;20184;-92
2023/08/01 03:04:14;;;;;;;0.00;0.00;;;15.30;99.90;;;;;;5112813;28;20997;-92
2023/08/01 03:06:40;;;;;;;0.10;0.10;;;15.30;99.90;;;;;;5114268;28;20188;-93
2023/08/01 03:09:07;;;;;;;0.10;0.10;;;15.30;99.90;;;;;;5111545;28;20746;-92
2023/08/01 03:11:35;;;;;;;0.10;0.10;;;15.30;99.90;;;;;;5108446;28;20604;-92
2023/08/01 03:14:00;;;;;;;0.10;0.10;;;15.30;99.90;;;;;;5109858;28;20525;-93
2023/08/01 03:16:26;;;;;;;0.10;0.10;;;15.30;99.90;;;;;;5111064;28;20881;-94
2023/08/01 03:18:51;;;;;;;0.10;0.10;;;15.30;99.90;;;;;;5112353;28;20652;-92
2023/08/01 03:21:17;;;;;;;0.10;0.10;;;15.30;99.90;;;;;;5110209;28;20267;-92
2023/08/01 03:23:43;;;;;;;0.10;0.10;;;15.30;99.90;;;;;;5111839;28;20195;-92
2023/08/01 03:26:08;;;;;;;0.00;0.00;;;15.30;99.90;;;;;;5114040;28;20781;-92
2023/08/01 03:28:34;;;;;;;0.10;0.10;;;15.30;99.90;;;;;;5112599;28;20212;-93
2023/08/01 03:30:59;;;;;;;0.00;0.00;;;15.30;99.90;;;;;;5108359;28;20185;-93
2023/08/01 03:33:25;;;;;;;0.10;0.10;;;15.30;99.90;;;;;;5107781;28;20197;-93
2023/08/01 03:35:50;;;;;;;0.10;0.10;;;15.30;99.90;;;;;;5112954;28;20230;-93
2023/08/01 03:38:16;;;;;;;0.10;0.10;;;15.30;99.90;;;;;;5105780;28;20193;-91
2023/08/01 03:40:41;;;;;;;0.10;0.10;;;15.30;99.90;;;;;;5103607;28;20275;-91
2023/08/01 03:43:09;;;;;;;0.10;0.10;;;15.30;99.90;;;;;;5102404;28;20263;-94
2023/08/01 03:45:34;;;;;;;0.10;0.10;;;15.30;99.90;;;;;;5102375;28;20181;-94
2023/08/01 03:48:00;;;;;;;0.10;0.10;;;15.30;99.90;;;;;;5113521;28;20507;-93
2023/08/01 03:50:26;;;;;;;0.10;0.10;;;15.30;99.90;;;;;;5114077;28;20232;-93
2023/08/01 03:52:51;;;;;;;0.00;0.00;;;15.40;99.90;;;;;;5113337;28;20252;-91
2023/08/01 03:55:17;;;;;;;0.10;0.10;;;15.30;99.90;;;;;;5111669;28;20267;-92
2023/08/01 03:57:42;;;;;;;0.10;0.10;;;15.40;99.90;;;;;;5113020;28;20185;-94
2023/08/01 04:00:17;;;;;;;0.10;0.10;;;15.30;99.90;;;;;;5104530;28;20184;-93
2023/08/01 04:02:43;;;;;;;0.10;0.10;;;15.30;99.90;;;;;;5111304;28;20206;-94
2023/08/01 04:05:09;;;;;;;0.00;0.00;;;15.30;99.90;;;;;;5109723;27;20528;-93
2023/08/01 04:07:36;;;;;;;0.00;0.00;;;15.40;99.90;;;;;;5102782;27;20585;-94
2023/08/01 04:10:02;;;;;;;0.10;0.10;;;15.30;99.90;;;;;;5101489;28;20211;-94
2023/08/01 04:12:28;;;;;;;0.00;0.00;;;15.30;99.90;;;;;;5097774;28;20957;-94
2023/08/01 04:14:54;;;;;;;0.00;0.00;;;15.30;99.90;;;;;;5105485;28;20453;-94
2023/08/01 04:17:19;;;;;;;0.00;0.00;;;15.30;99.90;;;;;;5094737;28;20431;-94
2023/08/01 04:19:45;;;;;;;0.00;0.00;;;15.30;99.90;;;;;;5108101;28;20262;-94
2023/08/01 04:22:10;;;;;;;0.10;0.10;;;15.30;99.90;;;;;;5110196;27;20189;-95
2023/08/01 04:24:36;;;;;;;0.10;0.10;;;15.30;99.90;;;;;;5112453;27;20188;-94
2023/08/01 04:27:01;;;;;;;0.00;0.00;;;15.30;99.90;;;;;;5114607;28;20192;-94
2023/08/01 04:29:27;;;;;;;0.00;0.00;;;15.30;99.90;;;;;;5113253;28;20257;-95
2023/08/01 04:31:52;;;;;;;0.10;0.10;;;15.30;99.90;;;;;;5114457;27;20195;-94
2023/08/01 04:34:18;;;;;;;0.10;0.10;;;15.30;99.90;;;;;;5114007;28;20241;-95
2023/08/01 04:36:43;;;;;;;0.10;0.10;;;15.30;99.90;;;;;;5114804;28;20200;-95
2023/08/01 04:39:09;;;;;;;0.10;0.10;;;15.30;99.90;;;;;;5106224;28;20234;-94
2023/08/01 04:41:34;;;;;;;0.10;0.10;;;15.30;99.90;;;;;;5096278;28;20663;-95
2023/08/01 04:44:00;;;;;;;0.10;0.10;;;15.30;99.90;;;;;;5092836;28;20296;-94
2023/08/01 04:46:25;;;;;;;0.10;0.10;;;15.30;99.90;;;;;;5109350;28;20226;-95
2023/08/01 04:48:51;;;;;;;0.00;0.00;;;15.30;99.90;;;;;;5106230;28;20213;-95
2023/08/01 04:51:16;;;;;;;0.00;0.00;;;15.30;99.90;;;;;;5104774;28;20180;-94
2023/08/01 04:53:42;;;;;;;0.10;0.10;;;15.30;99.90;;;;;;5098406;28;20196;-94
2023/08/01 04:56:07;;;;;;;0.10;0.10;;;15.30;99.90;;;;;;5106362;28;20222;-95
2023/08/01 04:58:33;;;;;;;0.10;0.10;;;15.30;99.90;;;;;;5109032;28;20188;-95
2023/08/01 05:00:58;;;;;;;0.10;0.10;;;15.30;99.90;;;;;;5097237;28;20205;-95
2023/08/01 05:03:24;;;;;;;0.10;0.10;;;15.30;99.90;;;;;;5104138;28;20765;-95
2023/08/01 05:05:49;;;;;;;0.07;0.07;;;15.30;99.90;;;;;;5101812;28;20196;-95
2023/08/01 05:08:15;;;;;;;0.10;0.10;;;15.30;99.90;;;;;;5103199;28;20217;-93
2023/08/01 05:10:40;;;;;;;0.10;0.10;;;15.30;99.90;;;;;;5102444;28;20789;-94
2023/08/01 05:13:06;;;;;;;0.10;0.10;;;15.30;99.90;;;;;;5112229;28;20188;-94
2023/08/01 05:15:31;;;;;;;0.10;0.10;;;15.30;99.90;;;;;;5103830;28;20538;-92
2023/08/01 05:17:57;;;;;;;0.10;0.10;;;15.30;99.90;;;;;;5108336;28;20251;-92
2023/08/01 05:20:22;;;;;;;0.10;0.10;;;15.20;99.90;;;;;;5104206;28;20185;-94
2023/08/01 05:22:48;;;;;;;0.10;0.10;;;15.10;99.90;;;;;;5103166;28;20272;-91
2023/08/01 05:25:13;;;;;;;0.10;0.10;;;15.10;99.90;;;;;;5100757;28;20235;-93
2023/08/01 05:27:39;;;;;;;0.10;0.10;;;15.10;99.90;;;;;;5105309;28;20237;-89
2023/08/01 05:30:05;;;;;;;0.20;0.20;;;15.10;99.90;;;;;;5106007;28;20192;-87
2023/08/01 05:32:30;;;;;;;0.20;0.20;;;15.10;99.90;;;;;;5099731;28;20180;-88
2023/08/01 05:34:56;;;;;;;0.20;0.20;;;15.10;99.90;;;;;;5106276;28;20458;-90
2023/08/01 05:37:21;;;;;;;0.10;0.10;;;15.10;99.90;;;;;;5104997;28;20291;-87
2023/08/01 05:39:47;;;;;;;0.10;0.10;;;15.10;99.90;;;;;;5103603;28;20177;-90
2023/08/01 05:42:12;;;;;;;0.10;0.10;;;15.00;99.90;;;;;;5108896;28;20236;-90
2023/08/01 05:44:37;;;;;;;0.10;0.10;;;15.00;99.90;;;;;;5105328;28;20184;-92
2023/08/01 05:47:03;;;;;;;0.10;0.10;;;15.00;99.90;;;;;;5108559;28;20250;-90
2023/08/01 05:49:32;;;;;;;0.00;0.00;;;15.00;99.90;;;;;;5108807;28;20243;-91
2023/08/01 05:51:57;;;;;;;0.10;0.10;;;14.90;99.90;;;;;;5107280;28;20268;-89
2023/08/01 05:54:23;;;;;;;0.10;0.10;;;14.90;99.90;;;;;;5105893;28;20565;-91
2023/08/01 05:56:48;;;;;;;0.10;0.10;;;14.90;99.90;;;;;;5106481;28;20598;-89
2023/08/01 05:59:14;;;;;;;0.10;0.10;;;14.90;99.90;;;;;;5102867;28;20996;-89
2023/08/01 06:01:39;;;;;;;0.10;0.10;;;15.00;99.90;;;;;;5103100;28;20206;-89
2023/08/01 06:04:05;;;;;;;0.10;0.10;;;14.90;99.90;;;;;;5106832;28;20191;-89
2023/08/01 06:06:30;;;;;;;0.10;0.10;;;14.90;99.90;;;;;;5108088;27;20285;-89
2023/08/01 06:08:56;;;;;;;0.10;0.10;;;15.00;99.90;;;;;;5112641;27;20265;-88
2023/08/01 06:11:21;;;;;;;0.10;0.10;;;15.00;99.90;;;;;;5105376;28;20675;-90
2023/08/01 06:13:47;;;;;;;0.10;0.10;;;15.00;99.90;;;;;;5112821;27;20554;-89
2023/08/01 06:16:12;;;;;;;0.10;0.10;;;15.00;99.90;;;;;;5099735;28;20213;-89
2023/08/01 06:18:38;;;;;;;0.10;0.10;;;15.10;99.90;;;;;;5108023;27;20192;-88
2023/08/01 06:21:03;;;;;;;0.10;0.10;;;15.10;99.90;;;;;;5101191;28;20176;-87
2023/08/01 06:23:29;;;;;;;0.00;0.00;;;15.00;99.90;;;;;;5103350;28;20903;-87
2023/08/01 06:25:54;;;;;;;0.10;0.10;;;14.90;99.90;;;;;;5104460;28;20660;-87
2023/08/01 06:28:20;;;;;;;0.00;0.00;;;14.90;99.90;;;;;;5100920;28;20212;-84
2023/08/01 06:30:45;;;;;;;0.10;0.10;;;14.90;99.90;;;;;;5101894;28;20242;-82
2023/08/01 06:33:11;;;;;;;0.10;0.10;;;15.00;99.90;;;;;;5103640;28;20211;-84
2023/08/01 06:35:36;;;;;;;0.20;0.20;;;14.90;99.90;;;;;;5109457;27;20196;-84
2023/08/01 06:38:02;;;;;;;0.10;0.10;;;14.90;99.90;;;;;;5103001;28;20194;-84
2023/08/01 06:40:27;;;;;;;0.10;0.10;;;14.90;99.90;;;;;;5105469;28;20181;-85
2023/08/01 06:42:53;;;;;;;0.10;0.10;;;14.90;99.90;;;;;;5103231;28;20187;-86
2023/08/01 06:45:18;;;;;;;0.10;0.10;;;14.90;99.90;;;;;;5100529;28;20310;-85
2023/08/01 06:47:44;;;;;;;0.10;0.10;;;14.90;99.90;;;;;;5098569;28;20196;-85
2023/08/01 06:50:10;;;;;;;0.10;0.10;;;15.00;99.90;;;;;;5107112;28;20242;-85
2023/08/01 06:52:35;;;;;;;0.00;0.00;;;15.10;99.90;;;;;;5096557;28;20181;-87
2023/08/01 06:55:01;;;;;;;0.00;0.00;;;15.10;99.90;;;;;;5109555;28;20267;-86
2023/08/01 06:57:27;;;;;;;0.10;0.10;;;15.20;99.90;;;;;;5106950;28;20187;-85
2023/08/01 06:59:53;;;;;;;0.10;0.10;;;15.20;99.90;;;;;;5112411;28;20521;-85
2023/08/01 07:02:19;;;;;;;0.00;0.00;;;15.20;99.90;;;;;;5106112;28;20604;-88
2023/08/01 07:04:44;;;;;;;0.10;0.10;;;15.20;99.90;;;;;;5105152;28;20180;-87
2023/08/01 07:07:10;;;;;;;0.10;0.10;;;15.30;99.90;;;;;;5110068;28;20433;-87
2023/08/01 07:09:35;;;;;;;0.10;0.10;;;15.30;99.90;;;;;;5102045;28;20219;-85
2023/08/01 07:12:01;;;;;;;0.00;0.00;;;15.20;99.90;;;;;;5109047;28;20217;-87
2023/08/01 07:14:26;;;;;;;0.10;0.10;;;15.20;99.90;;;;;;5108352;28;20188;-87
2023/08/01 07:16:52;;;;;;;0.17;0.17;;;15.20;99.90;;;;;;5109153;28;20212;-87
2023/08/01 07:19:17;;;;;;;0.10;0.10;;;15.10;99.90;;;;;;5102609;28;20184;-87
2023/08/01 07:21:44;;;;;;;0.07;0.07;;;15.20;99.90;;;;;;5111632;28;20179;-88
2023/08/01 07:24:10;;;;;;;0.10;0.10;;;15.20;99.90;;;;;;5109679;28;20195;-87
2023/08/01 07:26:36;;;;;;;0.10;0.10;;;15.20;99.90;;;;;;5099868;28;20952;-88
2023/08/01 07:29:01;;;;;;;0.00;0.00;;;15.30;99.90;;;;;;5109203;27;20223;-88
2023/08/01 07:31:27;;;;;;;0.10;0.10;;;15.40;99.90;;;;;;5118637;27;20188;-88
2023/08/01 07:33:52;;;;;;;0.10;0.10;;;15.40;99.90;;;;;;5106876;27;20233;-88
2023/08/01 07:36:18;;;;;;;0.10;0.10;;;15.40;99.90;;;;;;5107715;28;20189;-89
2023/08/01 07:38:43;;;;;;;0.10;0.10;;;15.40;99.90;;;;;;5106307;28;20546;-89
2023/08/01 07:41:09;;;;;;;0.10;0.10;;;15.40;99.90;;;;;;5096319;28;20632;-88
2023/08/01 07:43:35;;;;;;;0.10;0.10;;;15.40;99.90;;;;;;5105504;28;20181;-87
2023/08/01 07:46:01;;;;;;;0.10;0.10;;;15.40;99.90;;;;;;5107089;28;20446;-88
2023/08/01 07:48:26;;;;;;;0.00;0.00;;;15.50;99.90;;;;;;5110437;28;20596;-87
2023/08/01 07:50:52;;;;;;;0.00;0.00;;;15.60;99.90;;;;;;5111470;28;20675;-88
2023/08/01 07:53:18;;;;;;;0.00;0.00;;;15.70;99.90;;;;;;5102964;28;20229;-87
2023/08/01 07:55:43;;;;;;;0.27;0.27;;;15.90;99.90;;;;;;5112401;27;20177;-87
2023/08/01 07:58:09;;;;;;;0.20;0.20;;;16.00;99.90;;;;;;5112310;27;20607;-88
2023/08/01 08:00:35;;;;;;;0.10;0.10;;;16.20;99.90;;;;;;5097818;28;20187;-87
2023/08/01 08:03:01;;;;;;;0.00;0.00;;;16.20;99.90;;;;;;5108432;28;20249;-87
2023/08/01 08:05:26;;;;;;;0.10;0.10;;;16.30;99.90;;;;;;5108225;28;20969;-88
2023/08/01 08:07:52;;;;;;;0.10;0.10;;;16.30;99.90;;;;;;5109106;28;20229;-88
2023/08/01 08:10:17;;;;;;;0.10;0.10;;;16.30;99.90;;;;;;5103250;28;20211;-88
2023/08/01 08:12:43;;;;;;;0.00;0.00;;;16.20;99.90;;;;;;5110208;27;20242;-89
2023/08/01 08:15:08;;;;;;;0.00;0.00;;;16.20;99.90;;;;;;5116167;27;20192;-87
2023/08/01 08:17:34;;;;;;;0.00;0.00;;;16.20;99.90;;;;;;5112351;28;20184;-90
2023/08/01 08:19:59;;;;;;;0.00;0.00;;;16.60;99.90;;;;;;5107291;27;20199;-89
2023/08/01 08:22:25;;;;;;;0.10;0.10;;;16.50;99.90;;;;;;5108452;27;20196;-89
2023/08/01 08:24:50;;;;;;;0.10;0.10;;;16.40;99.90;;;;;;5110713;28;21060;-88
2023/08/01 08:27:16;;;;;;;0.10;0.10;;;16.30;99.90;;;;;;5104889;28;20231;-87
2023/08/01 08:29:41;;;;;;;0.10;0.10;;;16.40;99.90;;;;;;5106808;28;20243;-88
2023/08/01 08:32:08;;;;;;;0.10;0.10;;;16.70;99.90;;;;;;5108455;28;20578;-87
2023/08/01 08:34:33;;;;;;;0.10;0.10;;;17.00;99.90;;;;;;5108840;28;20438;-88
2023/08/01 08:36:59;;;;;;;0.10;0.10;;;17.30;99.90;;;;;;5108944;28;20657;-88
2023/08/01 08:39:25;;;;;;;0.10;0.10;;;17.60;99.90;;;;;;5107767;28;20184;-91
2023/08/01 08:41:52;;;;;;;0.17;0.17;;;17.60;99.90;;;;;;5106606;28;20182;-90
2023/08/01 08:44:20;;;;;;;0.20;0.20;;;17.90;99.90;;;;;;5107294;27;20542;-90
2023/08/01 08:46:52;;;;;;;0.10;0.10;;;18.10;99.90;;;;;;5113113;27;20438;-91
2023/08/01 08:49:21;;;;;;;0.13;0.13;;;18.30;99.90;;;;;;5107485;28;20987;-90
2023/08/01 08:51:47;;;;;;;0.00;0.00;;;18.30;99.90;;;;;;5103205;28;20442;-90
2023/08/01 08:54:14;;;;;;;0.40;0.40;;;18.40;99.90;;;;;;5107268;28;20438;-90
2023/08/01 08:56:40;;;;;;;0.00;0.00;;;18.50;99.90;;;;;;5100989;28;20947;-91
2023/08/01 08:59:09;;;;;;;0.00;0.00;;;19.20;99.90;;;;;;5104623;28;20532;-90
2023/08/01 09:01:36;;;;;;;0.10;0.10;;;19.10;99.90;;;;;;5104910;28;20511;-91
2023/08/01 09:04:02;;;;;;;0.20;0.20;;;19.00;99.90;;;;;;5103343;28;20964;-89
2023/08/01 09:06:31;;;;;;;0.60;0.60;;;18.60;99.90;;;;;;5103421;28;20464;-92
2023/08/01 09:09:04;;;;;;;0.20;0.20;;;18.30;99.90;;;;;;5101906;28;20482;-91
2023/08/01 09:11:43;;;;;;;0.20;0.20;;;18.80;99.90;;;;;;5101760;28;20436;-90
2023/08/01 09:14:09;;;;;;;0.43;0.43;;;19.10;99.90;;;;;;5101921;28;20515;-92
2023/08/01 09:16:35;;;;;;;0.30;0.30;;;19.30;99.90;;;;;;5108573;28;20478;-92
2023/08/01 09:19:01;;;;;;;0.20;0.20;;;19.60;99.90;;;;;;5109848;28;20556;-92
2023/08/01 09:21:26;;;;;;;0.00;0.00;;;20.10;99.90;;;;;;5100135;28;20176;-90
2023/08/01 09:23:52;;;;;;;0.10;0.10;;;19.90;99.90;;;;;;5108704;28;20195;-94
2023/08/01 09:26:19;;;;;;;0.00;0.00;;;19.90;99.90;;;;;;5110483;27;20204;-91
2023/08/01 09:28:55;;;;;;;0.00;0.00;;;19.90;99.90;;;;;;5106365;28;20262;-95
2023/08/01 09:31:29;;;;;;;0.00;0.00;;;19.30;99.90;;;;;;5110514;28;20836;-94
2023/08/01 09:33:55;;;;;;;0.00;0.00;;;18.90;99.90;;;;;;5092793;28;20439;-94
2023/08/01 09:36:23;;;;;;;0.00;0.00;;;18.70;99.90;;;;;;5099555;28;20480;-95
2023/08/01 09:38:49;;;;;;;0.00;0.00;;;18.60;99.90;;;;;;5108026;28;20188;-93
2023/08/01 09:41:19;;;;;;;0.00;0.00;;;18.50;99.90;;;;;;5105095;28;20442;-91
2023/08/01 09:43:46;;;;;;;0.10;0.10;;;18.40;99.90;;;;;;5106981;28;20449;-90
2023/08/01 09:46:12;;;;;;;0.10;0.10;;;18.00;99.90;;;;;;5122063;28;21158;-91
2023/08/01 09:48:38;;;;;;;0.10;0.10;;;17.80;99.90;;;;;;5107485;28;20481;-94
2023/08/01 09:51:12;;;;;;;0.40;0.40;;;17.80;99.90;;;;;;5104940;28;20443;-92
2023/08/01 09:53:56;;;;;;;0.00;0.00;;;17.70;99.90;;;;;;5111029;28;20464;-94
2023/08/01 09:56:23;;;;;;;0.10;0.10;;;18.20;99.90;;;;;;5113241;28;20434;-93
2023/08/01 09:58:50;;;;;;;0.10;0.10;;;18.40;99.90;;;;;;5115451;28;20459;-91
2023/08/01 10:01:18;;;;;;;0.13;0.13;;;19.00;99.90;;;;;;5108918;27;20639;-93
2023/08/01 10:03:51;;;;;;;0.13;0.13;;;19.90;99.90;;;;;;5097811;28;20489;-94
2023/08/01 10:06:19;;;;;;;0.20;0.20;;;19.90;99.90;;;;;;5097117;28;20446;-94
2023/08/01 10:08:46;;;;;;;0.10;0.10;;;19.70;99.90;;;;;;5093464;28;21049;-91
2023/08/01 10:11:14;;;;;;;0.10;0.10;;;19.10;99.90;;;;;;5108369;28;21332;-95
2023/08/01 10:13:42;;;;;;;0.10;0.10;;;18.80;99.90;;;;;;5110069;28;20422;-96
2023/08/01 10:16:08;;;;;;;0.10;0.10;;;18.80;99.90;;;;;;5102115;28;20984;-95
2023/08/01 10:18:37;;;;;;;0.07;0.07;;;18.70;99.90;;;;;;5110729;28;20431;-96
2023/08/01 10:21:04;;;;;;;0.10;0.10;;;18.40;99.90;;;;;;5109501;28;20227;-95
2023/08/01 10:23:32;;;;;;;0.10;0.10;;;18.20;99.90;;;;;;5107462;28;20473;-94
2023/08/01 10:25:59;;;;;;;0.10;0.10;;;18.30;99.90;;;;;;5100756;28;20540;-95
2023/08/01 10:28:33;;;;;;;0.20;0.20;;;18.70;99.90;;;;;;5109933;28;20481;-96
2023/08/01 10:31:14;;;;;;;0.10;0.10;;;18.60;99.90;;;;;;5103303;28;20438;-91
2023/08/01 10:33:42;;;;;;;0.10;0.10;;;18.30;99.90;;;;;;5110424;28;20438;-91
2023/08/01 10:36:14;;;;;;;0.00;0.00;;;18.20;99.90;;;;;;5109605;28;20442;-93
2023/08/01 10:38:51;;;;;;;0.13;0.13;;;18.20;99.90;;;;;;5097744;28;20476;-91
2023/08/01 10:41:31;;;;;;;0.00;0.00;;;18.20;99.90;;;;;;5103734;28;20445;-92
2023/08/01 10:44:12;;;;;;;0.00;0.00;;;17.80;99.90;;;;;;5105847;28;20449;-93
2023/08/01 10:46:51;;;;;;;0.00;0.00;;;17.90;99.90;;;;;;5110896;28;20437;-96
2023/08/01 10:49:17;;;;;;;0.00;0.00;;;17.90;99.90;;;;;;5105087;28;20490;-94
2023/08/01 10:51:44;;;;;;;0.00;0.00;;;18.20;99.90;;;;;;5116030;28;20448;-95
2023/08/01 10:54:23;;;;;;;0.00;0.00;;;18.50;99.90;;;;;;5117315;28;20469;-94
2023/08/01 10:56:52;;;;;;;0.10;0.10;;;18.60;99.90;;;;;;5107204;28;20774;-96
2023/08/01 10:59:18;;;;;;;0.00;0.00;;;18.50;99.90;;;;;;5111000;28;21033;-96
2023/08/01 11:01:45;;;;;;;0.00;0.00;;;18.80;99.90;;;;;;5111321;28;20505;-96
2023/08/01 11:04:18;;;;;;;0.20;0.20;;;19.30;99.90;;;;;;5105274;28;20540;-96
2023/08/01 11:06:48;;;;;;;0.20;0.20;;;19.50;99.90;;;;;;5112421;28;20430;-96
2023/08/01 11:09:22;;;;;;;0.20;0.20;;;19.60;99.90;;;;;;5110776;28;20485;-96
2023/08/01 11:11:53;;;;;;;0.10;0.10;;;19.70;99.90;;;;;;5100748;28;20442;-95
2023/08/01 11:14:24;;;;;;;0.00;0.00;;;20.00;99.90;;;;;;5105748;28;20450;-96
2023/08/01 11:16:50;;;;;;;0.00;0.00;;;20.00;99.90;;;;;;5105889;28;20913;-96
2023/08/01 11:19:23;;;;;;;0.10;0.10;;;19.70;99.90;;;;;;5108840;28;20870;-96
2023/08/01 11:21:49;;;;;;;0.20;0.20;;;19.10;99.90;;;;;;5105114;28;20469;-96
2023/08/01 11:24:16;;;;;;;0.07;0.07;;;18.40;99.90;;;;;;5098854;28;20435;-92
2023/08/01 11:26:43;;;;;;;0.10;0.10;;;18.30;99.90;;;;;;5108990;27;20449;-96
2023/08/01 11:29:10;;;;;;;0.00;0.00;;;17.80;99.90;;;;;;5101998;28;20475;-94
2023/08/01 11:31:36;;;;;;;0.10;0.10;;;17.60;99.90;;;;;;5108313;28;20965;-90
2023/08/01 11:34:01;;;;;;;0.07;0.07;;;17.60;99.90;;;;;;5092699;28;20431;-92
2023/08/01 11:36:28;;;;;;;0.10;0.10;;;17.70;99.90;;;;;;5104941;28;20207;-91
2023/08/01 11:38:57;;;;;;;0.00;0.00;;;17.90;99.90;;;;;;5100288;28;20253;-92
2023/08/01 11:41:24;;;;;;;0.10;0.10;;;18.00;99.90;;;;;;5098474;28;20442;-90
2023/08/01 11:43:51;;;;;;;0.20;0.20;;;17.80;99.90;;;;;;5109791;28;20934;-94
2023/08/01 11:46:17;;;;;;;0.00;0.00;;;17.70;99.90;;;;;;5112455;27;20437;-91
2023/08/01 11:48:52;;;;;;;0.00;0.00;;;17.80;99.90;;;;;;5111264;28;20482;-92
2023/08/01 11:51:18;;;;;;;0.00;0.00;;;17.90;99.90;;;;;;5111521;28;20188;-92
2023/08/01 11:53:43;;;;;;;0.00;0.00;;;18.30;99.90;;;;;;5097703;28;20442;-92
2023/08/01 11:56:21;;;;;;;0.10;0.10;;;18.40;99.90;;;;;;5103554;28;20427;-91
2023/08/01 11:58:46;;;;;;;0.00;0.00;;;18.30;99.90;;;;;;5106703;27;20715;-93
2023/08/01 12:01:13;;;;;;;0.10;0.10;;;18.00;99.90;;;;;;5109584;28;20434;-93
2023/08/01 12:03:43;;;;;;;0.10;0.10;;;17.80;99.90;;;;;;5100373;28;20191;-93
2023/08/01 12:06:11;;;;;;;0.00;0.00;;;17.40;99.90;;;;;;5110462;27;20436;-92
2023/08/01 12:08:37;;;;;;;0.00;0.00;;;17.20;99.90;;;;;;5110199;28;20474;-91
2023/08/01 12:11:03;;;;;;;0.00;0.00;;;17.20;99.90;;;;;;5102440;28;20439;-94
2023/08/01 12:13:28;;;;;;;0.00;0.00;;;17.10;99.90;;;;;;5103467;28;20433;-93
2023/08/01 12:15:59;;;;;;;0.00;0.00;;;16.90;99.90;;;;;;5106383;28;20184;-91
2023/08/01 12:18:29;;;;;;;0.00;0.00;;;16.90;99.90;;;;;;5093602;28;20172;-92
2023/08/01 12:20:55;;;;;;;0.10;0.10;;;16.70;99.90;;;;;;5096578;28;20465;-92
2023/08/01 12:23:21;;;;;;;0.10;0.10;;;16.90;99.90;;;;;;5104205;28;20430;-95
2023/08/01 12:25:47;;;;;;;0.10;0.10;;;16.80;99.90;;;;;;5105722;28;20514;-96
2023/08/01 12:28:14;;;;;;;0.10;0.10;;;16.60;99.90;;;;;;5101387;27;20263;-92
2023/08/01 12:30:41;;;;;;;0.10;0.10;;;16.50;99.90;;;;;;5112892;27;20237;-94
2023/08/01 12:33:07;;;;;;;0.00;0.00;;;16.40;99.90;;;;;;5101696;28;20464;-93
2023/08/01 12:35:33;;;;;;;0.00;0.00;;;16.30;99.90;;;;;;5100829;28;20442;-94
2023/08/01 12:37:58;;;;;;;0.10;0.10;;;16.40;99.90;;;;;;5106637;28;20445;-91
2023/08/01 12:40:24;;;;;;;0.10;0.10;;;16.30;99.90;;;;;;5107875;28;20225;-93
2023/08/01 12:42:49;;;;;;;0.20;0.20;;;16.30;99.90;;;;;;5108684;28;20168;-93
2023/08/01 12:45:15;;;;;;;0.10;0.10;;;16.30;99.90;;;;;;5106879;27;20183;-94